createdAt,value
2022-12-15T00:02:27.900Z,91.90
2022-12-15T00:05:13.341Z,91.80
2022-12-15T00:07:58.492Z,92.00
2022-12-15T00:10:43.377Z,91.80
2022-12-15T00:13:30.361Z,91.90
2022-12-15T00:16:17.139Z,91.70
2022-12-15T00:19:02.307Z,91.70
2022-12-15T00:21:47.264Z,91.60
2022-12-15T00:24:32.360Z,91.70
2022-12-15T00:27:17.317Z,91.80
2022-12-15T00:30:02.337Z,91.80
2022-12-15T00:32:48.736Z,91.60
2022-12-15T00:35:33.837Z,91.50
2022-12-15T00:38:24.776Z,91.50
2022-12-15T00:40:58.785Z,91.60
2022-12-15T00:43:26.492Z,91.80
2022-12-15T00:46:11.882Z,91.80
2022-12-15T00:48:40.917Z,91.60
2022-12-15T00:51:07.535Z,91.30
2022-12-15T00:53:52.626Z,91.10
2022-12-15T00:56:37.641Z,91.10
2022-12-15T00:59:22.665Z,91.10
2022-12-15T01:02:07.896Z,91.10
2022-12-15T01:04:54.367Z,90.80
2022-12-15T01:07:39.367Z,91.00
2022-12-15T01:10:24.945Z,90.80
2022-12-15T01:13:10.038Z,90.80
2022-12-15T01:15:55.144Z,90.90
2022-12-15T01:18:40.186Z,90.80
2022-12-15T01:21:09.856Z,91.00
2022-12-15T01:23:37.671Z,90.90
2022-12-15T01:26:05.398Z,91.00
2022-12-15T01:28:32.987Z,91.10
2022-12-15T01:31:00.591Z,91.40
2022-12-15T01:33:28.434Z,91.50
2022-12-15T01:35:57.118Z,91.60
2022-12-15T01:38:26.068Z,91.50
2022-12-15T01:40:54.164Z,91.40
2022-12-15T01:43:23.335Z,91.20
2022-12-15T01:45:52.750Z,91.20
2022-12-15T01:48:24.273Z,91.30
2022-12-15T01:50:55.481Z,91.30
2022-12-15T01:53:23.132Z,91.40
2022-12-15T01:55:52.215Z,91.20
2022-12-15T01:58:21.025Z,91.30
2022-12-15T02:00:48.936Z,91.40
2022-12-15T02:03:16.848Z,91.40
2022-12-15T02:05:44.406Z,91.50
2022-12-15T02:08:12.071Z,91.50
2022-12-15T02:10:45.426Z,91.50
2022-12-15T02:19:35.530Z,91.70
2022-12-15T02:22:10.326Z,91.70
2022-12-15T02:25:03.737Z,91.70
2022-12-15T02:27:44.143Z,91.70
2022-12-15T02:30:16.933Z,91.70
2022-12-15T02:32:47.791Z,91.60
2022-12-15T02:35:17.598Z,91.70
2022-12-15T02:37:46.108Z,91.80
2022-12-15T02:40:58.022Z,91.70
2022-12-15T02:43:31.325Z,91.90
2022-12-15T02:46:09.245Z,92.00
2022-12-15T02:48:41.755Z,92.20
2022-12-15T02:51:15.629Z,92.20
2022-12-15T02:53:59.845Z,92.20
2022-12-15T02:56:44.692Z,92.20
2022-12-15T02:59:15.832Z,91.60
2022-12-15T03:01:50.828Z,91.80
2022-12-15T03:04:22.922Z,92.00
2022-12-15T03:07:01.482Z,92.00
2022-12-15T03:09:30.028Z,92.00
2022-12-15T03:12:12.555Z,91.60
2022-12-15T03:14:55.174Z,92.10
2022-12-15T03:17:24.322Z,91.70
2022-12-15T03:19:51.898Z,91.70
2022-12-15T03:22:19.513Z,91.60
2022-12-15T03:24:48.309Z,91.70
2022-12-15T03:27:16.362Z,91.90
2022-12-15T03:29:43.957Z,92.10
2022-12-15T03:32:11.656Z,91.90
2022-12-15T03:34:40.716Z,91.90
2022-12-15T03:37:08.672Z,92.20
2022-12-15T03:39:36.384Z,91.90
2022-12-15T03:42:04.106Z,92.20
2022-12-15T03:44:31.708Z,92.10
2022-12-15T03:47:03.268Z,92.20
2022-12-15T03:49:31.560Z,92.40
2022-12-15T03:52:00.551Z,92.30
2022-12-15T03:54:28.464Z,93.00
2022-12-15T03:56:56.049Z,92.50
2022-12-15T03:59:23.746Z,92.70
2022-12-15T04:01:51.608Z,93.00
2022-12-15T04:04:19.291Z,92.90
2022-12-15T04:06:46.910Z,93.20
2022-12-15T04:09:15.908Z,93.40
2022-12-15T04:11:44.249Z,94.00
2022-12-15T04:14:11.880Z,93.50
2022-12-15T04:16:39.506Z,93.50
2022-12-15T04:19:24.609Z,93.50
2022-12-15T04:21:52.178Z,93.50
2022-12-15T04:24:38.516Z,93.60
2022-12-15T04:27:23.701Z,93.90
2022-12-15T04:30:08.639Z,94.20
2022-12-15T04:32:54.114Z,94.40
2022-12-15T04:35:39.557Z,94.60
2022-12-15T04:38:24.532Z,94.70
2022-12-15T04:41:18.357Z,94.80
2022-12-15T04:44:03.393Z,94.90
2022-12-15T04:46:48.583Z,95.10
2022-12-15T04:49:33.925Z,94.80
2022-12-15T04:52:19.432Z,95.10
2022-12-15T04:55:04.558Z,95.10
2022-12-15T04:57:51.022Z,95.40
2022-12-15T05:00:36.037Z,95.60
2022-12-15T05:03:22.511Z,95.50
2022-12-15T05:06:07.853Z,95.70
2022-12-15T05:08:53.191Z,95.50
2022-12-15T05:11:38.172Z,95.40
2022-12-15T05:14:24.528Z,95.20
2022-12-15T05:17:09.684Z,95.20
2022-12-15T05:19:55.113Z,95.20
2022-12-15T05:22:40.421Z,95.40
2022-12-15T05:25:25.970Z,95.20
2022-12-15T05:28:10.975Z,95.00
2022-12-15T05:30:57.496Z,95.00
2022-12-15T05:33:25.209Z,95.10
2022-12-15T05:35:52.849Z,95.00
2022-12-15T05:38:20.531Z,94.80
2022-12-15T05:40:49.548Z,94.70
2022-12-15T05:43:21.627Z,94.80
2022-12-15T05:45:53.921Z,95.10
2022-12-15T05:48:21.601Z,95.20
2022-12-15T05:50:50.578Z,94.90
2022-12-15T05:53:18.942Z,94.90
2022-12-15T05:55:47.675Z,94.90
2022-12-15T05:58:15.308Z,95.40
2022-12-15T06:00:42.992Z,95.00
2022-12-15T06:03:12.999Z,95.10
2022-12-15T06:05:40.685Z,95.20
2022-12-15T06:08:08.359Z,95.00
2022-12-15T06:10:36.076Z,94.90
2022-12-15T06:13:04.250Z,95.10
2022-12-15T06:15:31.900Z,95.10
2022-12-15T06:17:59.541Z,95.20
2022-12-15T06:20:29.000Z,95.40
2022-12-15T06:22:56.704Z,95.80
2022-12-15T06:25:24.426Z,95.50
2022-12-15T06:27:54.707Z,95.10
2022-12-15T06:30:24.670Z,95.30
2022-12-15T06:32:52.321Z,95.40
2022-12-15T06:35:20.027Z,95.40
2022-12-15T06:37:49.072Z,95.50
2022-12-15T06:40:16.771Z,96.00
2022-12-15T06:42:44.362Z,95.40
2022-12-15T06:45:12.118Z,96.10
2022-12-15T06:47:39.775Z,95.70
2022-12-15T06:50:07.853Z,95.70
2022-12-15T06:52:35.602Z,95.30
2022-12-15T06:55:04.952Z,95.70
2022-12-15T06:57:32.754Z,96.10
2022-12-15T07:00:00.456Z,95.70
2022-12-15T07:02:30.003Z,95.70
2022-12-15T07:04:57.987Z,95.80
2022-12-15T07:07:25.796Z,95.90
2022-12-15T07:09:53.423Z,96.20
2022-12-15T07:12:22.739Z,96.20
2022-12-15T07:15:06.323Z,96.50
2022-12-15T07:17:37.036Z,96.50
2022-12-15T07:20:26.972Z,96.20
2022-12-15T07:22:56.422Z,97.90
2022-12-15T07:25:24.412Z,96.60
2022-12-15T07:27:53.413Z,96.90
2022-12-15T07:30:21.033Z,97.10
2022-12-15T07:32:50.388Z,96.60
2022-12-15T07:35:18.314Z,96.40
2022-12-15T07:37:45.891Z,96.60
2022-12-15T07:40:14.103Z,96.40
2022-12-15T07:42:41.802Z,96.60
2022-12-15T07:45:12.051Z,96.00
2022-12-15T07:47:39.660Z,96.20
2022-12-15T07:50:08.181Z,96.00
2022-12-15T07:52:35.880Z,95.40
2022-12-15T07:55:03.715Z,95.70
2022-12-15T07:57:32.897Z,95.50
2022-12-15T08:00:10.586Z,95.80
2022-12-15T08:02:41.063Z,96.10
2022-12-15T08:05:14.207Z,95.60
2022-12-15T08:07:44.538Z,95.50
2022-12-15T08:10:12.242Z,95.20
2022-12-15T08:12:40.203Z,94.90
2022-12-15T08:15:10.315Z,94.90
2022-12-15T08:17:41.079Z,94.90
2022-12-15T08:20:12.181Z,94.90
2022-12-15T08:22:40.508Z,94.90
2022-12-15T08:25:08.746Z,94.60
2022-12-15T08:27:36.863Z,94.90
2022-12-15T08:30:04.992Z,94.60
2022-12-15T08:32:32.875Z,94.80
2022-12-15T08:35:03.241Z,94.60
2022-12-15T08:37:31.106Z,94.90
2022-12-15T08:40:00.313Z,94.10
2022-12-15T08:42:28.603Z,94.20
2022-12-15T08:44:56.362Z,94.60
2022-12-15T08:47:24.167Z,93.90
2022-12-15T08:49:54.725Z,94.80
2022-12-15T08:52:24.504Z,93.50
2022-12-15T08:54:53.551Z,93.70
2022-12-15T08:57:21.834Z,93.80
2022-12-15T08:59:50.576Z,93.80
2022-12-15T09:02:18.639Z,93.30
2022-12-15T09:04:47.309Z,93.30
2022-12-15T09:07:16.946Z,93.00
2022-12-15T09:09:53.919Z,93.10
2022-12-15T09:12:21.787Z,93.30
2022-12-15T09:14:49.696Z,92.90
2022-12-15T09:17:17.639Z,93.20
2022-12-15T09:19:46.791Z,93.30
2022-12-15T09:22:14.727Z,93.20
2022-12-15T09:24:42.614Z,92.60
2022-12-15T09:27:11.723Z,92.80
2022-12-15T09:29:39.404Z,93.00
2022-12-15T09:32:13.641Z,92.80
2022-12-15T09:34:41.972Z,92.60
2022-12-15T09:37:09.818Z,92.50
2022-12-15T09:39:38.924Z,92.30
2022-12-15T09:45:41.428Z,91.50
2022-12-15T09:51:42.849Z,91.90
2022-12-15T09:56:17.933Z,91.80
2022-12-15T09:58:28.402Z,91.90
2022-12-15T10:01:00.627Z,91.50
2022-12-15T10:03:37.582Z,91.70
2022-12-15T10:06:16.602Z,92.40
2022-12-15T10:08:50.574Z,93.20
2022-12-15T10:11:37.051Z,95.40
2022-12-15T10:14:16.528Z,96.60
2022-12-15T10:16:59.668Z,96.60
2022-12-15T10:19:49.927Z,96.70
2022-12-15T10:22:29.794Z,96.90
2022-12-15T10:25:09.723Z,96.20
2022-12-15T10:27:52.288Z,96.80
2022-12-15T10:30:21.196Z,96.70
2022-12-15T10:32:58.339Z,96.00
2022-12-15T10:35:28.221Z,96.60
2022-12-15T10:37:58.879Z,96.50
2022-12-15T10:40:45.059Z,96.70
2022-12-15T10:43:48.014Z,97.20
2022-12-15T10:46:19.599Z,97.10
2022-12-15T10:49:19.206Z,96.50
2022-12-15T10:58:50.083Z,96.80
2022-12-15T11:04:57.358Z,96.70
2022-12-15T11:07:27.168Z,96.40
2022-12-15T11:10:00.083Z,96.70
2022-12-15T11:12:47.275Z,96.00
2022-12-15T11:15:42.235Z,95.70
2022-12-15T11:18:15.453Z,95.70
2022-12-15T11:20:44.588Z,95.20
2022-12-15T11:23:20.348Z,95.30
2022-12-15T11:25:50.156Z,94.50
2022-12-15T11:28:20.473Z,94.10
2022-12-15T11:30:50.224Z,93.30
2022-12-15T11:33:17.820Z,93.30
2022-12-15T11:35:51.061Z,92.80
2022-12-15T11:38:24.443Z,93.10
2022-12-15T11:40:52.685Z,92.90
2022-12-15T11:43:27.953Z,92.70
2022-12-15T11:46:02.636Z,92.70
2022-12-15T11:48:34.841Z,92.10
2022-12-15T11:51:03.688Z,92.20
2022-12-15T11:53:52.033Z,92.10
2022-12-15T11:56:23.890Z,92.20
2022-12-15T11:58:57.884Z,91.80
2022-12-15T12:01:36.638Z,91.80
2022-12-15T12:04:09.488Z,92.00
2022-12-15T12:06:39.912Z,91.30
2022-12-15T12:09:18.510Z,91.30
2022-12-15T12:11:51.078Z,91.40
2022-12-15T12:14:24.392Z,91.40
2022-12-15T12:16:56.535Z,91.40
2022-12-15T12:19:25.709Z,91.20
2022-12-15T12:21:56.925Z,91.10
2022-12-15T12:24:27.289Z,90.90
2022-12-15T12:26:58.253Z,91.20
2022-12-15T12:29:29.137Z,91.00
2022-12-15T12:32:04.485Z,90.90
2022-12-15T12:34:38.904Z,90.70
2022-12-15T12:37:14.262Z,90.70
2022-12-15T12:39:43.905Z,90.60
2022-12-15T12:42:15.689Z,90.70
2022-12-15T12:44:43.711Z,90.60
2022-12-15T12:47:14.523Z,90.90
2022-12-15T12:49:44.638Z,90.60
2022-12-15T12:52:19.056Z,90.80
2022-12-15T12:54:54.239Z,90.70
2022-12-15T12:57:31.123Z,90.70
2022-12-15T12:59:59.501Z,90.70
2022-12-15T13:02:46.466Z,90.60
2022-12-15T13:05:38.569Z,90.70
2022-12-15T13:08:20.176Z,90.80
2022-12-15T13:10:50.776Z,90.60
2022-12-15T13:13:33.933Z,90.60
2022-12-15T13:16:05.894Z,90.30
2022-12-15T13:18:55.849Z,90.50
2022-12-15T13:21:38.490Z,90.50
2022-12-15T13:24:07.044Z,90.60
2022-12-15T13:26:35.932Z,90.60
2022-12-15T13:29:03.490Z,90.50
2022-12-15T13:31:32.205Z,90.50
2022-12-15T13:34:11.234Z,90.50
2022-12-15T13:36:54.764Z,90.70
2022-12-15T13:39:34.440Z,90.40
2022-12-15T13:42:45.293Z,90.50
2022-12-15T13:45:16.016Z,90.40
2022-12-15T13:47:50.967Z,90.50
2022-12-15T13:50:24.372Z,90.50
2022-12-15T13:53:18.739Z,90.40
2022-12-15T13:55:52.506Z,90.30
2022-12-15T13:58:21.193Z,90.20
2022-12-15T14:00:52.339Z,90.10
2022-12-15T14:03:20.448Z,89.80
2022-12-15T14:05:51.222Z,90.00
2022-12-15T14:08:19.581Z,90.20
2022-12-15T14:10:51.272Z,90.30
2022-12-15T14:13:21.657Z,90.10
2022-12-15T14:15:52.918Z,90.30
2022-12-15T14:18:25.121Z,90.50
2022-12-15T14:20:53.141Z,90.10
2022-12-15T14:23:21.195Z,90.20
2022-12-15T14:25:57.253Z,90.20
2022-12-15T14:28:26.159Z,90.40
2022-12-15T14:30:57.874Z,90.10
2022-12-15T14:33:29.739Z,90.10
2022-12-15T14:35:58.489Z,90.20
2022-12-15T14:38:28.868Z,90.30
2022-12-15T14:40:57.541Z,90.40
2022-12-15T14:43:28.867Z,90.50
2022-12-15T14:46:06.413Z,90.40
2022-12-15T14:48:42.769Z,90.40
2022-12-15T14:51:11.869Z,90.50
2022-12-15T14:53:41.221Z,90.70
2022-12-15T14:56:29.456Z,90.80
2022-12-15T14:59:00.299Z,90.90
2022-12-15T15:01:30.445Z,90.90
2022-12-15T15:03:59.026Z,90.90
2022-12-15T15:06:29.942Z,91.10
2022-12-15T15:08:57.859Z,91.20
2022-12-15T15:11:29.684Z,91.10
2022-12-15T15:13:59.013Z,91.00
2022-12-15T15:16:27.158Z,90.90
2022-12-15T15:18:57.170Z,90.80
2022-12-15T15:21:26.232Z,91.20
2022-12-15T15:24:00.879Z,90.90
2022-12-15T15:26:29.743Z,90.80
2022-12-15T15:28:57.378Z,90.90
2022-12-15T15:31:35.263Z,91.00
2022-12-15T15:34:09.254Z,91.00
2022-12-15T15:36:38.070Z,91.00
2022-12-15T15:39:10.815Z,90.90
2022-12-15T15:41:38.365Z,90.80
2022-12-15T15:44:10.735Z,90.70
2022-12-15T15:46:40.489Z,90.50
2022-12-15T15:49:10.169Z,90.50
2022-12-15T15:51:37.860Z,90.60
2022-12-15T15:54:06.705Z,90.40
2022-12-15T15:56:35.011Z,90.30
2022-12-15T15:59:10.521Z,90.30
2022-12-15T16:01:38.229Z,90.30
2022-12-15T16:04:06.547Z,90.30
2022-12-15T16:06:35.744Z,90.20
2022-12-15T16:09:03.445Z,90.20
2022-12-15T16:11:32.178Z,90.20
2022-12-15T16:14:01.433Z,90.00
2022-12-15T16:16:30.929Z,90.20
2022-12-15T16:18:58.591Z,90.30
2022-12-15T16:21:27.449Z,90.10
2022-12-15T16:23:57.723Z,90.00
2022-12-15T16:26:27.272Z,90.10
2022-12-15T16:28:55.101Z,90.20
2022-12-15T16:31:28.924Z,90.20
2022-12-15T16:33:56.812Z,90.00
2022-12-15T16:36:24.509Z,89.80
2022-12-15T16:38:52.173Z,89.70
2022-12-15T16:41:23.158Z,90.10
2022-12-15T16:43:50.821Z,90.10
2022-12-15T16:46:18.528Z,90.20
2022-12-15T16:48:46.205Z,90.10
2022-12-15T16:51:22.287Z,90.10
2022-12-15T16:53:49.820Z,90.10
2022-12-15T16:56:17.490Z,89.90
2022-12-15T16:58:48.932Z,90.30
2022-12-15T17:01:22.140Z,90.10
2022-12-15T17:03:49.995Z,90.20
2022-12-15T17:06:18.066Z,90.20
2022-12-15T17:08:47.469Z,90.10
2022-12-15T17:11:17.491Z,90.20
2022-12-15T17:13:50.885Z,90.20
2022-12-15T17:16:19.435Z,90.00
2022-12-15T17:18:47.216Z,90.20
2022-12-15T17:21:16.877Z,90.20
2022-12-15T17:23:45.444Z,90.20
2022-12-15T17:26:27.598Z,90.30
2022-12-15T17:28:58.183Z,90.30
2022-12-15T17:31:31.523Z,90.30
2022-12-15T17:34:03.644Z,90.40
2022-12-15T17:36:31.226Z,90.40
2022-12-15T17:38:59.514Z,90.50
2022-12-15T17:41:59.459Z,90.40
2022-12-15T17:44:36.091Z,90.30
2022-12-15T17:47:05.948Z,90.30
2022-12-15T17:49:36.572Z,90.20
2022-12-15T17:52:06.985Z,90.30
2022-12-15T17:54:35.515Z,90.30
2022-12-15T17:57:03.495Z,90.20
2022-12-15T17:59:32.558Z,90.90
2022-12-15T18:02:00.443Z,90.90
2022-12-15T18:04:28.213Z,90.30
2022-12-15T18:07:01.489Z,90.70
2022-12-15T18:09:29.939Z,90.20
2022-12-15T18:11:57.684Z,90.70
2022-12-15T18:14:25.383Z,91.00
2022-12-15T18:16:54.301Z,90.50
2022-12-15T18:19:23.165Z,90.20
2022-12-15T18:21:50.746Z,89.30
2022-12-15T18:24:21.431Z,89.50
2022-12-15T18:26:49.089Z,89.40
2022-12-15T18:29:18.368Z,90.00
2022-12-15T18:31:46.935Z,90.00
2022-12-15T18:34:17.463Z,90.20
2022-12-15T18:36:45.365Z,90.10
2022-12-15T18:39:19.734Z,90.10
2022-12-15T18:41:47.802Z,90.00
2022-12-15T18:44:19.543Z,90.30
2022-12-15T18:46:48.309Z,90.10
2022-12-15T18:49:17.528Z,90.10
2022-12-15T18:51:46.322Z,90.10
2022-12-15T18:54:16.130Z,90.20
2022-12-15T18:56:43.773Z,90.20
2022-12-15T18:59:15.428Z,90.10
2022-12-15T19:01:43.615Z,90.30
2022-12-15T19:04:11.425Z,90.40
2022-12-15T19:06:40.828Z,90.50
2022-12-15T19:09:11.528Z,90.70
2022-12-15T19:11:39.110Z,90.70
2022-12-15T19:14:33.856Z,91.10
2022-12-15T19:17:19.067Z,91.00
2022-12-15T19:20:04.254Z,90.70
2022-12-15T19:22:33.234Z,90.50
2022-12-15T19:25:02.071Z,90.70
2022-12-15T19:27:29.802Z,90.90
2022-12-15T19:29:57.454Z,90.70
2022-12-15T19:32:26.631Z,90.70
2022-12-15T19:34:54.262Z,90.70
2022-12-15T19:37:24.307Z,90.50
2022-12-15T19:39:54.257Z,90.40
2022-12-15T19:42:24.934Z,90.40
2022-12-15T19:44:53.110Z,90.60
2022-12-15T19:47:20.795Z,90.50
2022-12-15T19:49:48.333Z,90.30
2022-12-15T19:52:16.269Z,90.30
2022-12-15T19:54:43.879Z,90.20
2022-12-15T19:57:14.391Z,90.40
2022-12-15T19:59:41.990Z,90.70
2022-12-15T20:02:15.872Z,90.60
2022-12-15T20:04:43.544Z,90.70
2022-12-15T20:07:16.127Z,90.50
2022-12-15T20:09:43.781Z,90.50
2022-12-15T20:12:16.613Z,90.60
2022-12-15T20:14:45.571Z,90.50
2022-12-15T20:17:13.211Z,90.40
2022-12-15T20:19:40.761Z,90.20
2022-12-15T20:22:11.367Z,90.20
2022-12-15T20:24:39.233Z,90.00
2022-12-15T20:27:11.647Z,90.00
2022-12-15T20:29:39.474Z,90.20
2022-12-15T20:32:13.558Z,90.10
2022-12-15T20:34:41.230Z,90.30
2022-12-15T20:37:17.188Z,90.30
2022-12-15T20:39:44.864Z,90.60
2022-12-15T20:42:14.328Z,90.60
2022-12-15T20:44:42.157Z,90.60
2022-12-15T20:47:16.930Z,90.80
2022-12-15T20:49:44.832Z,90.90
2022-12-15T20:52:15.926Z,90.70
2022-12-15T20:54:43.900Z,90.60
2022-12-15T20:57:11.933Z,90.80
2022-12-15T20:59:39.524Z,91.20
2022-12-15T21:02:16.230Z,91.10
2022-12-15T21:04:44.035Z,91.10
2022-12-15T21:07:12.156Z,91.30
2022-12-15T21:09:40.087Z,91.30
2022-12-15T21:12:12.906Z,91.30
2022-12-15T21:14:40.422Z,91.30
2022-12-15T21:17:10.286Z,91.40
2022-12-15T21:19:39.362Z,91.30
2022-12-15T21:22:09.264Z,91.40
2022-12-15T21:24:36.847Z,91.30
2022-12-15T21:27:04.634Z,91.40
2022-12-15T21:29:32.684Z,91.40
2022-12-15T21:32:00.273Z,91.30
2022-12-15T21:34:27.992Z,91.20
2022-12-15T21:36:57.587Z,91.20
2022-12-15T21:39:29.223Z,91.50
2022-12-15T21:41:57.056Z,91.50
2022-12-15T21:44:25.076Z,91.40
2022-12-15T21:46:52.653Z,91.50
2022-12-15T21:49:21.461Z,91.60
2022-12-15T21:51:51.867Z,91.50
2022-12-15T21:54:26.067Z,91.60
2022-12-15T21:56:56.619Z,91.70
2022-12-15T21:59:25.633Z,91.60
2022-12-15T22:01:55.286Z,91.50
2022-12-15T22:04:24.530Z,91.70
2022-12-15T22:06:52.108Z,91.90
2022-12-15T22:09:21.676Z,91.60
2022-12-15T22:11:50.563Z,91.90
2022-12-15T22:14:23.827Z,92.10
2022-12-15T22:16:51.567Z,92.10
2022-12-15T22:19:19.122Z,91.90
2022-12-15T22:21:46.711Z,92.00
2022-12-15T22:24:14.348Z,91.90
2022-12-15T22:26:43.320Z,92.20
2022-12-15T22:29:13.489Z,92.50
2022-12-15T22:31:41.044Z,92.40
2022-12-15T22:34:12.851Z,92.30
2022-12-15T22:36:40.550Z,92.30
2022-12-15T22:39:10.778Z,92.30
2022-12-15T22:41:39.894Z,92.40
2022-12-15T22:44:14.133Z,92.40
2022-12-15T22:46:41.834Z,92.50
2022-12-15T22:49:10.687Z,92.60
2022-12-15T22:51:38.219Z,92.60
2022-12-15T22:54:11.728Z,92.50
2022-12-15T22:56:40.302Z,92.60
2022-12-15T22:59:10.379Z,92.80
2022-12-15T23:01:37.970Z,92.80
2022-12-15T23:04:06.142Z,92.70
2022-12-15T23:06:33.723Z,92.70
2022-12-15T23:09:01.291Z,92.60
2022-12-15T23:11:37.104Z,92.70
2022-12-15T23:14:04.782Z,92.50
2022-12-15T23:16:33.296Z,92.50
2022-12-15T23:19:01.029Z,92.50
2022-12-15T23:21:29.170Z,92.20
2022-12-15T23:23:57.654Z,92.10
2022-12-15T23:26:25.870Z,92.00
2022-12-15T23:28:53.870Z,92.00
2022-12-15T23:31:22.892Z,92.10
2022-12-15T23:33:52.146Z,92.10
2022-12-15T23:36:20.118Z,92.00
2022-12-15T23:38:47.699Z,91.90
2022-12-15T23:41:16.128Z,91.60
2022-12-15T23:43:43.911Z,91.80
2022-12-15T23:46:11.496Z,91.90
2022-12-15T23:48:40.377Z,92.20
2022-12-15T23:51:10.091Z,92.10
2022-12-15T23:53:38.487Z,92.00
2022-12-15T23:56:07.214Z,91.90
2022-12-15T23:58:35.737Z,92.00
